Time;durP1;ratioP1;P1;durP2;ratioP2;P2;SDS_P1;SDS_P2;PMS_P1;PMS_P2;Temp;Humidity;BMP_temperature;BMP_pressure;BME280_temperature;BME280_humidity;BME280_pressure;Samples;Min_cycle;Max_cycle;Signal;HPM_P1;HPM_P2
2020/12/20 00:00:14;;;;;;;53.20;21.37;;;;;;;4.72;83.69;100293.09;1814820;79;21214;-83
2020/12/20 00:02:52;;;;;;;58.70;21.85;;;;;;;4.70;83.60;100296.50;1813014;79;21209;-81
2020/12/20 00:05:22;;;;;;;58.17;21.97;;;;;;;4.73;83.62;100293.52;1805790;79;21293;-83
2020/12/20 00:07:52;;;;;;;55.30;21.42;;;;;;;4.69;83.46;100296.03;1806607;79;21126;-82
2020/12/20 00:10:22;;;;;;;54.03;20.20;;;;;;;4.72;83.40;100293.52;1812583;79;21114;-84
2020/12/20 00:12:51;;;;;;;56.63;20.17;;;;;;;4.71;83.29;100289.20;1810408;78;21114;-82
2020/12/20 00:15:23;;;;;;;54.13;22.32;;;;;;;4.71;83.38;100298.21;1807285;79;21153;-88
2020/12/20 00:17:53;;;;;;;53.38;20.97;;;;;;;4.76;83.29;100298.75;1797584;79;21188;-83
2020/12/20 00:20:23;;;;;;;52.50;20.92;;;;;;;4.76;83.32;100301.75;1809175;79;21157;-83
2020/12/20 00:22:58;;;;;;;54.27;19.80;;;;;;;4.77;83.23;100300.89;1814090;79;21237;-82
2020/12/20 00:25:27;;;;;;;53.92;20.57;;;;;;;4.80;83.24;100302.25;1816022;79;21298;-82
2020/12/20 00:27:55;;;;;;;58.28;21.80;;;;;;;4.83;83.19;100307.87;1809560;79;21307;-83
2020/12/20 00:30:24;;;;;;;55.30;21.17;;;;;;;4.82;83.25;100303.58;1815459;79;21277;-82
2020/12/20 00:32:52;;;;;;;51.90;20.25;;;;;;;4.82;83.24;100301.86;1810570;79;21284;-84
2020/12/20 00:35:20;;;;;;;46.80;18.70;;;;;;;4.78;83.20;100302.65;1818969;79;21293;-83
2020/12/20 00:37:50;;;;;;;52.65;20.65;;;;;;;4.81;83.29;100306.98;1816780;79;21241;-82
2020/12/20 00:40:18;;;;;;;56.25;21.80;;;;;;;4.80;83.28;100308.70;1814339;78;21244;-83
2020/12/20 00:42:48;;;;;;;56.33;21.57;;;;;;;4.79;83.19;100305.66;1817245;79;21272;-83
2020/12/20 00:45:16;;;;;;;49.53;19.80;;;;;;;4.78;83.27;100306.08;1812754;79;21729;-83
2020/12/20 00:47:44;;;;;;;54.23;20.77;;;;;;;4.78;83.24;100302.65;1813944;79;21217;-83
2020/12/20 00:50:13;;;;;;;66.02;23.45;;;;;;;4.77;83.24;100302.19;1748727;82;21115;-83
2020/12/20 00:52:41;;;;;;;52.20;20.20;;;;;;;4.79;83.36;100301.79;1814204;78;21884;-82
2020/12/20 00:55:12;;;;;;;50.10;19.42;;;;;;;4.78;83.24;100300.07;1809221;79;21267;-83
2020/12/20 00:57:40;;;;;;;51.18;19.40;;;;;;;4.74;83.23;100303.44;1809523;79;21264;-83
2020/12/20 01:00:09;;;;;;;72.05;23.95;;;;;;;4.72;83.06;100308.98;1810596;79;21288;-83
2020/12/20 01:02:37;;;;;;;66.57;22.05;;;;;;;4.73;83.18;100309.41;1812889;79;22429;-83
2020/12/20 01:05:06;;;;;;;73.12;24.45;;;;;;;4.68;83.33;100310.63;1813540;79;21257;-83
2020/12/20 01:07:35;;;;;;;55.60;21.82;;;;;;;4.68;83.33;100308.48;1815635;79;21293;-83
2020/12/20 01:10:04;;;;;;;72.05;24.15;;;;;;;4.66;83.40;100308.88;1810130;79;21261;-82
2020/12/20 01:12:33;;;;;;;51.28;19.77;;;;;;;4.61;83.65;100310.05;1778735;79;21237;-84
2020/12/20 01:15:15;;;;;;;52.55;22.70;;;;;;;4.73;83.27;100302.97;1828902;75;23125;-88
2020/12/20 01:17:44;;;;;;;52.15;22.75;;;;;;;4.63;83.30;100301.08;1809591;76;21136;-83
2020/12/20 01:20:14;;;;;;;52.78;22.70;;;;;;;4.65;83.47;100300.25;1798699;79;21160;-82
2020/12/20 01:22:41;;;;;;;54.55;21.20;;;;;;;4.56;83.53;100290.66;1799916;77;21135;-83
2020/12/20 01:25:11;;;;;;;52.95;23.20;;;;;;;4.63;83.37;100295.50;1814675;75;21259;-83
2020/12/20 01:27:39;;;;;;;52.17;23.95;;;;;;;4.62;82.58;100300.64;1802264;77;21311;-83
2020/12/20 01:30:08;;;;;;;50.92;22.07;;;;;;;4.55;83.42;100303.08;1772160;79;21251;-82
2020/12/20 01:32:35;;;;;;;52.23;23.12;;;;;;;4.53;82.91;100299.61;1805841;79;21267;-83
2020/12/20 01:35:05;;;;;;;48.30;21.40;;;;;;;4.50;83.02;100296.99;1808165;79;21275;-83
2020/12/20 01:37:33;;;;;;;44.88;20.70;;;;;;;4.47;83.28;100296.92;1800761;79;21243;-82
2020/12/20 01:40:05;;;;;;;50.55;21.65;;;;;;;4.43;82.86;100304.56;1795994;77;21525;-83
2020/12/20 01:42:33;;;;;;;43.30;19.00;;;;;;;4.37;83.26;100301.02;1812338;75;21212;-83
2020/12/20 01:45:01;;;;;;;45.43;19.57;;;;;;;4.33;83.41;100299.66;1819716;79;21743;-83
2020/12/20 01:47:32;;;;;;;50.70;19.95;;;;;;;4.30;83.22;100302.19;1802681;77;21248;-83
2020/12/20 01:50:07;;;;;;;47.48;18.65;;;;;;;4.25;83.89;100303.79;1780762;79;21274;-83
2020/12/20 01:52:35;;;;;;;43.42;19.10;;;;;;;4.24;83.84;100304.22;1801523;79;21108;-82
2020/12/20 01:55:03;;;;;;;48.45;20.10;;;;;;;4.24;83.47;100302.03;1775733;77;21185;-83
2020/12/20 01:57:35;;;;;;;47.05;19.40;;;;;;;4.21;83.78;100302.85;1789499;78;21400;-81
2020/12/20 02:00:15;;;;;;;47.03;19.45;;;;;;;4.23;84.01;100299.03;1830751;76;23066;-88
2020/12/20 02:02:44;;;;;;;50.30;20.75;;;;;;;4.18;84.16;100310.53;1821883;79;21133;-82
2020/12/20 02:05:14;;;;;;;44.85;19.45;;;;;;;4.12;84.24;100306.13;1822687;76;21109;-84
2020/12/20 02:07:43;;;;;;;45.33;16.48;;;;;;;4.10;84.44;100300.08;1852195;75;21094;-84
2020/12/20 02:10:10;;;;;;;44.73;16.85;;;;;;;4.13;84.07;100301.41;1810796;75;21148;-82
2020/12/20 02:12:39;;;;;;;46.75;18.23;;;;;;;4.12;84.04;100294.97;1822309;75;21239;-84
2020/12/20 02:15:16;;;;;;;46.70;17.30;;;;;;;4.19;84.22;100296.80;1821377;76;21137;-84
2020/12/20 02:17:44;;;;;;;47.60;16.45;;;;;;;4.16;83.97;100299.34;1831104;76;21160;-83
2020/12/20 02:20:14;;;;;;;42.15;16.67;;;;;;;4.17;84.55;100297.20;1830901;76;21145;-82
2020/12/20 02:22:56;;;;;;;37.65;15.03;;;;;;;4.26;84.29;100298.67;1830485;77;23111;-84
2020/12/20 02:25:25;;;;;;;;;;;;;;;4.23;84.14;100302.89;1788627;78;21284;-83
2020/12/20 02:27:54;;;;;;;39.70;15.58;;;;;;;4.25;84.61;100302.50;1803621;78;20255;-84
2020/12/20 02:30:23;;;;;;;41.65;16.50;;;;;;;4.28;84.87;100300.00;1746510;81;21223;-84
2020/12/20 02:32:52;;;;;;;42.17;16.40;;;;;;;4.30;84.79;100294.47;1748674;79;21250;-83
2020/12/20 02:35:21;;;;;;;48.25;18.55;;;;;;;4.32;84.90;100296.65;1774308;80;21233;-83
2020/12/20 02:37:49;;;;;;;45.75;18.98;;;;;;;4.37;84.79;100296.30;1779465;80;21264;-82
2020/12/20 02:40:17;;;;;;;43.42;17.90;;;;;;;4.42;84.53;100298.55;1774845;78;21265;-83
2020/12/20 02:42:46;;;;;;;42.65;17.07;;;;;;;4.45;84.38;100295.16;1751610;80;21111;-83
2020/12/20 02:45:13;;;;;;;48.55;19.02;;;;;;;4.47;84.39;100293.05;1808394;77;21164;-83
2020/12/20 02:47:41;;;;;;;43.55;19.73;;;;;;;4.48;84.48;100292.66;1813792;78;21256;-83
2020/12/20 02:50:09;;;;;;;42.38;19.87;;;;;;;4.49;84.08;100287.52;1714057;82;21152;-82
2020/12/20 02:52:41;;;;;;;42.98;18.67;;;;;;;4.45;83.98;100290.88;1747472;82;21258;-84
2020/12/20 02:55:09;;;;;;;44.03;19.57;;;;;;;4.41;83.98;100290.37;1723885;81;21265;-83
2020/12/20 02:57:41;;;;;;;48.85;19.00;;;;;;;4.39;83.98;100291.62;1747005;82;21269;-83
2020/12/20 03:00:38;;;;;;;41.95;18.10;;;;;;;4.38;84.11;100289.04;1808771;77;23039;-84
2020/12/20 03:03:07;;;;;;;37.88;17.90;;;;;;;4.30;84.05;100293.17;1755045;81;21315;-83
2020/12/20 03:05:37;;;;;;;40.95;17.42;;;;;;;4.25;84.40;100292.20;1752452;82;21272;-84
2020/12/20 03:08:05;;;;;;;43.50;16.90;;;;;;;4.24;84.41;100295.20;1759398;82;21253;-83
2020/12/20 03:10:33;;;;;;;36.65;16.90;;;;;;;4.21;84.38;100295.13;1734992;82;21307;-84
2020/12/20 03:13:03;;;;;;;39.83;15.83;;;;;;;4.22;83.22;100295.99;1725631;82;21265;-84
2020/12/20 03:15:34;;;;;;;42.43;17.27;;;;;;;4.15;84.28;100293.30;1757616;82;21280;-82
2020/12/20 03:18:02;;;;;;;45.95;19.00;;;;;;;4.08;83.99;100287.99;1727983;82;21277;-83
2020/12/20 03:20:31;;;;;;;49.80;20.02;;;;;;;4.06;84.94;100296.99;1731944;82;21307;-83
2020/12/20 03:22:59;;;;;;;46.25;19.25;;;;;;;4.03;84.81;100295.63;1741272;79;21276;-84
2020/12/20 03:25:43;;;;;;;45.00;17.50;;;;;;;4.02;84.64;100295.59;1750296;81;21339;-82
2020/12/20 03:28:26;;;;;;;42.30;16.82;;;;;;;4.08;85.07;100287.59;1832928;75;22918;-88
2020/12/20 03:31:12;;;;;;;38.85;15.28;;;;;;;4.05;85.01;100293.95;1819259;78;21279;-83
2020/12/20 03:33:47;;;;;;;41.02;16.25;;;;;;;4.05;85.14;100291.80;1789009;77;21235;-84
2020/12/20 03:36:26;;;;;;;38.23;15.03;;;;;;;4.16;84.92;100295.05;1833046;76;23034;-86
2020/12/20 03:38:54;;;;;;;44.58;16.70;;;;;;;4.11;84.75;100294.50;1806442;78;21263;-82
2020/12/20 03:41:22;;;;;;;37.45;13.98;;;;;;;4.10;84.96;100297.50;1802731;79;21251;-84
2020/12/20 03:43:50;;;;;;;39.33;15.43;;;;;;;4.16;84.82;100300.63;1799302;79;21247;-83
2020/12/20 03:46:17;;;;;;;35.35;14.85;;;;;;;4.18;84.89;100304.09;1812251;79;21287;-83
2020/12/20 03:48:47;;;;;;;37.65;15.00;;;;;;;4.19;84.82;100298.95;1800204;79;21282;-83
2020/12/20 03:51:16;;;;;;;38.95;14.73;;;;;;;4.27;84.63;100305.97;1809307;78;21228;-83
2020/12/20 03:53:47;;;;;;;35.98;16.60;;;;;;;4.22;84.65;100295.99;1799442;79;21291;-84
2020/12/20 03:56:16;;;;;;;39.63;17.05;;;;;;;4.21;84.68;100291.70;1818323;78;21283;-83
2020/12/20 03:58:48;;;;;;;38.55;16.67;;;;;;;4.25;84.38;100287.92;1798385;79;21119;-82
2020/12/20 04:01:17;;;;;;;44.45;16.90;;;;;;;4.21;84.60;100297.70;1808154;79;21184;-81
2020/12/20 04:03:45;;;;;;;44.95;16.00;;;;;;;4.18;84.42;100292.09;1803432;79;21131;-84
2020/12/20 04:06:12;;;;;;;41.53;15.83;;;;;;;4.14;84.80;100290.29;1774275;79;21247;-83
2020/12/20 04:08:41;;;;;;;37.63;16.75;;;;;;;4.13;84.53;100292.83;1805207;77;21164;-84
2020/12/20 04:11:13;;;;;;;40.05;16.23;;;;;;;4.11;84.79;100297.08;1801705;79;21258;-84
2020/12/20 04:13:41;;;;;;;35.17;16.23;;;;;;;4.09;84.84;100295.75;1804319;79;21291;-83
2020/12/20 04:16:09;;;;;;;36.10;14.93;;;;;;;4.08;84.90;100296.61;1794639;79;21258;-84
2020/12/20 04:18:38;;;;;;;36.30;15.45;;;;;;;4.07;84.24;100293.56;1799279;78;21235;-84
2020/12/20 04:21:06;;;;;;;35.63;14.93;;;;;;;4.01;84.67;100297.73;1800477;76;21298;-84
2020/12/20 04:23:34;;;;;;;36.00;14.60;;;;;;;3.97;84.55;100291.22;1808478;79;21299;-84
2020/12/20 04:26:13;;;;;;;28.92;13.55;;;;;;;3.97;84.16;100290.36;1796478;79;21307;-82
2020/12/20 04:28:48;;;;;;;33.88;12.82;;;;;;;3.95;83.82;100288.17;1806429;79;21565;-82
2020/12/20 04:31:18;;;;;;;26.77;10.80;;;;;;;3.94;83.70;100289.02;1797045;79;21323;-82
2020/12/20 04:33:46;;;;;;;24.43;10.18;;;;;;;3.93;83.93;100292.42;1811115;79;21287;-84
2020/12/20 04:36:16;;;;;;;28.32;10.80;;;;;;;3.96;83.83;100304.08;1800454;78;21672;-81
2020/12/20 04:38:45;;;;;;;26.25;10.65;;;;;;;3.98;83.92;100295.97;1784733;79;21317;-82
2020/12/20 04:41:14;;;;;;;24.90;9.83;;;;;;;3.99;83.58;100296.41;1803242;79;21231;-83
2020/12/20 04:43:43;;;;;;;26.07;10.32;;;;;;;4.00;83.43;100296.88;1800163;79;21104;-83
2020/12/20 04:46:11;;;;;;;23.52;9.45;;;;;;;4.05;83.55;100295.24;1807617;79;21290;-83
2020/12/20 04:48:44;;;;;;;25.12;10.25;;;;;;;4.08;83.06;100299.57;1801693;78;21279;-83
2020/12/20 04:51:16;;;;;;;22.17;8.95;;;;;;;4.10;83.42;100302.66;1805108;78;21256;-82
2020/12/20 04:53:47;;;;;;;23.87;9.98;;;;;;;4.15;83.30;100305.31;1800787;78;21231;-83
2020/12/20 04:56:19;;;;;;;18.35;7.35;;;;;;;4.19;83.25;100307.96;1821887;77;21259;-82
2020/12/20 04:58:52;;;;;;;16.85;7.37;;;;;;;4.19;82.45;100305.81;1800966;79;21282;-83
2020/12/20 05:01:21;;;;;;;16.20;7.00;;;;;;;4.21;82.49;100305.86;1798240;79;21485;-82
2020/12/20 05:03:49;;;;;;;19.10;8.13;;;;;;;4.21;82.46;100296.42;1795637;79;21251;-82
2020/12/20 05:06:18;;;;;;;16.42;6.72;;;;;;;4.23;82.30;100309.33;1801085;79;21275;-83
2020/12/20 05:08:48;;;;;;;12.15;6.12;;;;;;;4.23;82.01;100302.46;1795202;79;21252;-83
2020/12/20 05:11:30;;;;;;;14.00;5.85;;;;;;;4.24;82.00;100303.33;1792514;76;21290;-82
2020/12/20 05:13:59;;;;;;;15.83;6.72;;;;;;;4.20;81.53;100297.27;1794426;79;21274;-83
2020/12/20 05:16:34;;;;;;;17.73;5.92;;;;;;;4.19;81.76;100307.10;1742689;79;21194;-88
2020/12/20 05:19:21;;;;;;;19.10;7.28;;;;;;;4.18;81.62;100308.81;1799758;78;22779;-89
2020/12/20 05:21:50;;;;;;;16.30;6.85;;;;;;;4.07;81.52;100302.57;1766792;79;21292;-83
2020/12/20 05:24:28;;;;;;;16.75;7.00;;;;;;;4.06;81.63;100312.44;1748945;80;21257;-82
2020/12/20 05:27:05;;;;;;;19.25;7.15;;;;;;;4.07;81.35;100306.44;1897440;75;22239;-88
2020/12/20 05:29:34;;;;;;;17.30;7.35;;;;;;;3.99;81.47;100315.27;1785035;80;21136;-83
2020/12/20 05:32:03;;;;;;;14.07;5.90;;;;;;;3.97;81.54;100301.94;1798887;80;21272;-84
2020/12/20 05:34:41;;;;;;;15.88;7.08;;;;;;;3.96;81.69;100302.36;1794825;78;21187;-84
2020/12/20 05:37:11;;;;;;;16.10;7.35;;;;;;;3.97;81.68;100304.52;1831192;78;22030;-82
2020/12/20 05:40:02;;;;;;;20.85;7.87;;;;;;;3.96;81.73;100303.66;1820925;78;21122;-83
2020/12/20 05:42:31;;;;;;;18.92;6.95;;;;;;;3.96;81.71;100308.80;1825835;78;21312;-83
2020/12/20 05:45:08;;;;;;;22.70;7.95;;;;;;;3.96;81.77;100306.22;1823995;78;21315;-83
2020/12/20 05:47:39;;;;;;;26.50;8.33;;;;;;;3.97;81.63;100306.66;1823743;77;21260;-84
2020/12/20 05:50:13;;;;;;;33.05;9.65;;;;;;;3.98;81.65;100299.41;1831393;75;21265;-84
2020/12/20 05:52:41;;;;;;;37.45;10.03;;;;;;;3.95;81.20;100309.62;1795009;79;21217;-84
2020/12/20 05:55:13;;;;;;;30.20;9.53;;;;;;;3.98;81.62;100306.27;1821487;75;21300;-83
2020/12/20 05:57:40;;;;;;;27.05;7.67;;;;;;;4.01;81.74;100307.59;1823533;77;21242;-84
2020/12/20 06:00:08;;;;;;;19.77;7.62;;;;;;;4.05;81.62;100308.11;1826846;75;21090;-84
2020/12/20 06:02:37;;;;;;;19.57;7.25;;;;;;;4.08;81.67;100308.19;1827787;75;21279;-83
2020/12/20 06:05:05;;;;;;;14.68;6.05;;;;;;;4.13;81.32;100307.84;1797161;78;21248;-84
2020/12/20 06:07:34;;;;;;;18.73;7.40;;;;;;;4.17;81.40;100313.92;1787459;77;21212;-84
2020/12/20 06:10:01;;;;;;;18.70;6.65;;;;;;;4.21;81.69;100316.15;1803975;78;21269;-83
2020/12/20 06:12:49;;;;;;;18.65;7.08;;;;;;;4.27;81.14;100312.41;1835517;76;23393;-89
2020/12/20 06:15:19;;;;;;;17.98;7.42;;;;;;;4.22;81.00;100311.05;1818316;75;21125;-84
2020/12/20 06:17:52;;;;;;;23.50;7.75;;;;;;;4.21;79.92;100322.59;1823701;78;21224;-84
2020/12/20 06:20:29;;;;;;;20.52;7.42;;;;;;;4.21;80.44;100323.88;1810169;75;21259;-85
2020/12/20 06:22:57;;;;;;;24.65;8.83;;;;;;;4.21;80.53;100315.72;1791550;77;21271;-84
2020/12/20 06:25:27;;;;;;;21.90;8.00;;;;;;;4.14;80.43;100309.59;1803862;79;21251;-82
2020/12/20 06:28:03;;;;;;;22.15;9.15;;;;;;;4.21;80.21;100320.88;1822252;79;21092;-83
2020/12/20 06:30:30;;;;;;;21.20;8.25;;;;;;;4.19;80.37;100321.27;1791532;77;21232;-84
2020/12/20 06:33:03;;;;;;;24.55;8.23;;;;;;;4.17;80.01;100314.78;1811047;79;21255;-82
2020/12/20 06:35:32;;;;;;;18.90;7.83;;;;;;;4.14;80.09;100323.75;1798432;78;21461;-84
2020/12/20 06:37:59;;;;;;;19.90;8.00;;;;;;;4.12;80.12;100317.70;1780174;80;21171;-84
2020/12/20 06:40:35;;;;;;;18.05;8.78;;;;;;;4.06;80.27;100311.14;1767939;81;21288;-84
2020/12/20 06:43:02;;;;;;;18.77;8.08;;;;;;;4.03;79.92;100327.80;1752292;78;21228;-84
2020/12/20 06:45:30;;;;;;;21.17;8.58;;;;;;;4.03;80.20;100325.65;1753645;79;21295;-83
2020/12/20 06:48:03;;;;;;;28.45;10.18;;;;;;;4.01;80.32;100324.32;1771726;80;21229;-83
2020/12/20 06:50:47;;;;;;;24.30;10.82;;;;;;;4.00;80.52;100329.03;1772797;80;21133;-84
2020/12/20 06:53:17;;;;;;;27.80;11.25;;;;;;;4.01;80.70;100325.61;1768278;81;21220;-83
2020/12/20 06:55:46;;;;;;;27.90;9.10;;;;;;;4.01;80.71;100332.47;1766688;78;21259;-84
2020/12/20 06:58:17;;;;;;;27.60;10.48;;;;;;;4.02;80.58;100329.94;1779706;78;21248;-84
2020/12/20 07:00:55;;;;;;;22.13;8.75;;;;;;;4.02;80.71;100333.80;1784417;77;21223;-85
2020/12/20 07:03:31;;;;;;;23.00;9.13;;;;;;;4.03;80.80;100338.52;1782757;78;21236;-84
2020/12/20 07:06:10;;;;;;;23.90;8.23;;;;;;;4.04;80.68;100344.09;1777220;79;21433;-83
2020/12/20 07:09:05;;;;;;;20.97;7.67;;;;;;;4.15;81.05;100337.48;1796925;78;22934;-88
2020/12/20 07:11:47;;;;;;;16.07;7.35;;;;;;;4.13;81.23;100338.73;1777955;79;21212;-82
2020/12/20 07:14:20;;;;;;;18.50;7.15;;;;;;;4.15;80.66;100337.48;1779478;79;21109;-87
2020/12/20 07:16:49;;;;;;;22.10;8.58;;;;;;;4.19;80.67;100336.28;1716024;83;21248;-82
2020/12/20 07:19:24;;;;;;;24.40;9.73;;;;;;;4.24;80.46;100333.82;1753410;81;21279;-83
2020/12/20 07:22:00;;;;;;;20.80;9.30;;;;;;;4.31;80.50;100341.23;1799249;78;23234;-87
2020/12/20 07:24:34;;;;;;;21.55;9.05;;;;;;;4.27;80.41;100343.30;1785757;78;21300;-83
2020/12/20 07:27:05;;;;;;;25.20;10.05;;;;;;;4.29;80.45;100345.48;1818738;78;21214;-83
2020/12/20 07:29:35;;;;;;;22.22;8.45;;;;;;;4.30;80.39;100351.10;1809592;78;21260;-82
2020/12/20 07:32:04;;;;;;;25.97;9.53;;;;;;;4.25;80.15;100348.41;1806658;78;21166;-83
2020/12/20 07:34:33;;;;;;;18.17;7.87;;;;;;;4.22;79.94;100344.90;1812838;77;21247;-84
2020/12/20 07:37:00;;;;;;;16.27;8.15;;;;;;;4.20;80.02;100348.75;1812832;79;21114;-84
2020/12/20 07:39:28;;;;;;;21.52;9.18;;;;;;;4.23;80.17;100344.08;1811199;78;21271;-84
2020/12/20 07:42:00;;;;;;;23.92;9.18;;;;;;;4.24;79.90;100349.27;1812108;77;21268;-84
2020/12/20 07:44:34;;;;;;;21.07;7.60;;;;;;;4.18;79.44;100353.00;1810201;78;21221;-85
2020/12/20 07:47:10;;;;;;;20.00;9.23;;;;;;;4.17;79.40;100360.26;1808984;77;21704;-84
2020/12/20 07:49:38;;;;;;;22.15;10.65;;;;;;;4.03;79.81;100339.38;1819819;77;21226;-83
2020/12/20 07:52:09;;;;;;;23.02;10.08;;;;;;;4.17;79.92;100358.97;1811991;78;21229;-83
2020/12/20 07:54:36;;;;;;;16.73;8.20;;;;;;;4.19;79.67;100355.58;1805995;77;21123;-82
2020/12/20 07:57:05;;;;;;;22.13;7.53;;;;;;;4.18;79.61;100359.44;1812762;79;21288;-84
2020/12/20 07:59:32;;;;;;;17.75;7.42;;;;;;;4.14;79.68;100367.51;1813505;78;21111;-83
2020/12/20 08:02:00;;;;;;;19.40;8.25;;;;;;;4.13;79.62;100368.33;1740049;82;21299;-84
2020/12/20 08:04:27;;;;;;;20.17;7.08;;;;;;;4.16;79.53;100369.69;1815893;79;21282;-83
2020/12/20 08:06:55;;;;;;;17.32;7.35;;;;;;;4.20;80.09;100369.34;1812374;78;21573;-82
2020/12/20 08:09:25;;;;;;;19.65;6.65;;;;;;;4.23;80.32;100371.11;1813084;79;21295;-82
2020/12/20 08:11:54;;;;;;;18.00;7.15;;;;;;;4.25;80.36;100366.86;1808105;79;21263;-81
2020/12/20 08:14:24;;;;;;;15.55;6.87;;;;;;;4.27;80.05;100369.91;1812643;79;21279;-82
2020/12/20 08:16:54;;;;;;;17.23;6.75;;;;;;;4.31;80.14;100363.98;1813674;79;21606;-83
2020/12/20 08:19:31;;;;;;;18.45;7.45;;;;;;;4.37;80.54;100369.68;1814360;79;21268;-82
2020/12/20 08:22:07;;;;;;;22.30;8.23;;;;;;;4.31;79.43;100372.99;1743754;82;21320;-83
2020/12/20 08:24:41;;;;;;;20.40;8.80;;;;;;;4.42;80.41;100376.20;1765540;81;21340;-83
2020/12/20 08:27:19;;;;;;;22.00;9.30;;;;;;;4.44;79.66;100374.56;1769114;81;21140;-83
2020/12/20 08:29:50;;;;;;;24.05;8.98;;;;;;;4.42;79.35;100378.77;1810370;79;21134;-83
2020/12/20 08:32:21;;;;;;;19.17;9.00;;;;;;;4.42;79.39;100387.79;1804944;77;21276;-83
2020/12/20 08:34:50;;;;;;;23.05;9.60;;;;;;;4.43;79.55;100382.67;1816441;79;21158;-83
2020/12/20 08:37:22;;;;;;;21.45;9.20;;;;;;;4.46;79.31;100385.76;1811769;79;21296;-82
2020/12/20 08:39:49;;;;;;;17.27;8.58;;;;;;;4.44;79.51;100388.30;1818282;79;21276;-83
2020/12/20 08:42:18;;;;;;;25.62;9.43;;;;;;;4.49;79.40;100387.95;1755522;82;21303;-83
2020/12/20 08:44:49;;;;;;;19.15;8.08;;;;;;;4.45;79.43;100386.15;1733237;81;21300;-83
2020/12/20 08:47:20;;;;;;;21.75;9.68;;;;;;;4.41;79.21;100390.79;1766948;81;21204;-84
2020/12/20 08:49:59;;;;;;;36.33;13.48;;;;;;;4.41;79.52;100385.64;1812781;79;21263;-82
2020/12/20 08:52:29;;;;;;;37.95;16.70;;;;;;;4.42;79.55;100386.50;1803754;79;21245;-83
2020/12/20 08:55:00;;;;;;;21.70;10.18;;;;;;;4.41;79.50;100380.48;1808157;79;21210;-81
2020/12/20 08:57:30;;;;;;;28.80;12.70;;;;;;;4.41;79.40;100380.48;1812007;79;21083;-82
2020/12/20 09:00:13;;;;;;;30.43;12.25;;;;;;;4.36;79.74;100381.70;1804440;79;21274;-83
2020/12/20 09:02:41;;;;;;;22.27;8.75;;;;;;;4.34;79.80;100379.94;1809470;79;21063;-84
2020/12/20 09:05:14;;;;;;;21.82;8.30;;;;;;;4.37;79.79;100380.84;1747924;81;21252;-83
2020/12/20 09:07:46;;;;;;;25.80;8.73;;;;;;;4.45;79.79;100374.56;1745675;78;21174;-84
2020/12/20 09:10:20;;;;;;;20.05;7.28;;;;;;;4.46;79.71;100380.18;1754827;81;21241;-87
2020/12/20 09:13:01;;;;;;;21.70;8.53;;;;;;;4.47;79.60;100381.04;1767418;81;21221;-82
2020/12/20 09:15:35;;;;;;;20.52;7.42;;;;;;;4.54;80.26;100386.78;1756453;81;21276;-83
2020/12/20 09:18:15;;;;;;;23.42;7.58;;;;;;;4.56;80.00;100383.38;1767054;81;21212;-83
2020/12/20 09:20:45;;;;;;;19.05;8.20;;;;;;;4.56;79.52;100381.23;1750311;79;21127;-84
2020/12/20 09:23:21;;;;;;;19.35;8.60;;;;;;;4.65;80.03;100380.53;1768950;80;21834;-83
2020/12/20 09:25:50;;;;;;;22.65;8.95;;;;;;;4.73;79.74;100376.39;1808443;79;21765;-83
2020/12/20 09:28:27;;;;;;;18.57;8.63;;;;;;;4.78;79.31;100376.08;1804682;78;21229;-84
2020/12/20 09:30:57;;;;;;;18.75;8.63;;;;;;;4.80;78.29;100370.95;1748760;81;21163;-82
2020/12/20 09:33:29;;;;;;;20.77;8.98;;;;;;;4.84;78.57;100372.33;1763576;81;21157;-82
2020/12/20 09:39:08;;;;;;;22.00;9.05;;;;;;;4.90;77.72;100358.26;1808769;77;23092;-82
2020/12/20 09:41:36;;;;;;;21.17;9.15;;;;;;;4.88;78.28;100355.22;1816310;78;21240;-83
2020/12/20 09:44:03;;;;;;;19.77;9.08;;;;;;;4.91;77.96;100350.09;1778878;79;21323;-81
2020/12/20 09:46:36;;;;;;;23.00;9.43;;;;;;;4.90;77.98;100357.40;1742685;82;21300;-83
2020/12/20 09:49:05;;;;;;;21.68;9.08;;;;;;;4.85;78.04;100354.72;1817065;78;21227;-82
2020/12/20 09:51:33;;;;;;;21.00;8.85;;;;;;;4.86;77.89;100362.91;1752560;81;21171;-81
2020/12/20 09:54:01;;;;;;;21.93;9.98;;;;;;;4.85;78.07;100353.43;1767144;79;21337;-81
2020/12/20 09:56:28;;;;;;;21.25;7.67;;;;;;;4.81;77.52;100355.94;1797905;79;21276;-82
2020/12/20 09:58:56;;;;;;;21.35;7.62;;;;;;;4.82;77.60;100349.53;1785819;79;21313;-81
2020/12/20 10:01:27;;;;;;;20.82;8.53;;;;;;;4.83;77.56;100347.81;1792346;79;21253;-82
2020/12/20 10:03:54;;;;;;;24.95;8.70;;;;;;;4.88;77.42;100347.48;1749669;82;21258;-83
2020/12/20 10:06:22;;;;;;;27.15;9.50;;;;;;;4.98;78.64;100345.52;1732063;81;22173;-82
2020/12/20 10:08:49;;;;;;;25.60;8.23;;;;;;;5.03;78.38;100340.43;1745078;81;21157;-83
2020/12/20 10:11:21;;;;;;;24.40;9.65;;;;;;;5.05;78.32;100337.03;1735697;81;21296;-82
2020/12/20 10:13:50;;;;;;;;;;;;;;;5.02;76.26;100342.15;1755983;81;21175;-82
2020/12/20 10:16:20;;;;;;;18.77;9.03;;;;;;;5.08;77.94;100331.94;1757186;81;20296;-82
2020/12/20 10:18:48;;;;;;;20.45;8.68;;;;;;;5.10;76.82;100331.97;1812155;78;21312;-81
2020/12/20 10:21:17;;;;;;;25.23;9.43;;;;;;;5.12;75.60;100335.45;1799421;79;21284;-81
2020/12/20 10:23:47;;;;;;;19.80;7.37;;;;;;;5.07;74.85;100335.34;1806651;79;21288;-82
2020/12/20 10:26:15;;;;;;;13.58;6.87;;;;;;;5.10;76.05;100331.55;1804904;79;21269;-81
2020/12/20 10:28:42;;;;;;;13.88;6.08;;;;;;;5.06;75.17;100332.34;1797044;79;21159;-86
2020/12/20 10:31:09;;;;;;;17.05;7.10;;;;;;;5.02;74.79;100335.70;1800671;79;21165;-84
2020/12/20 10:33:37;;;;;;;18.17;7.60;;;;;;;5.02;73.96;100332.27;1798154;79;21122;-87
2020/12/20 10:36:05;;;;;;;28.73;10.18;;;;;;;5.03;74.57;100324.97;1802259;79;21300;-81
2020/12/20 10:38:32;;;;;;;17.77;7.85;;;;;;;5.03;72.91;100324.97;1817406;78;21368;-83
2020/12/20 10:41:00;;;;;;;14.95;6.70;;;;;;;5.03;73.90;100317.23;1813350;78;21239;-82
2020/12/20 10:43:27;;;;;;;14.63;6.70;;;;;;;4.97;73.99;100321.45;1800099;78;21292;-82
2020/12/20 10:45:55;;;;;;;18.73;7.10;;;;;;;5.00;74.28;100314.63;1804352;79;21318;-82
2020/12/20 10:48:22;;;;;;;13.95;6.95;;;;;;;4.97;74.37;100312.44;1796133;78;21267;-82
2020/12/20 10:50:50;;;;;;;15.83;6.92;;;;;;;4.92;72.95;100314.06;1801659;78;21673;-83
2020/12/20 10:53:17;;;;;;;28.27;10.43;;;;;;;4.90;73.77;100305.86;1801491;79;21254;-82
2020/12/20 10:55:45;;;;;;;64.05;21.05;;;;;;;4.90;73.50;100312.30;1742789;81;21276;-82
2020/12/20 10:58:12;;;;;;;50.48;22.77;;;;;;;4.90;73.90;100309.30;1757112;81;21267;-81
2020/12/20 11:00:39;;;;;;;21.65;8.90;;;;;;;4.82;72.48;100304.44;1738740;81;21365;-82
2020/12/20 11:03:07;;;;;;;14.85;6.20;;;;;;;4.90;74.02;100301.56;1794828;79;21276;-82
2020/12/20 11:05:34;;;;;;;14.15;6.22;;;;;;;4.91;74.51;100298.56;1809003;79;21252;-81
2020/12/20 11:08:02;;;;;;;14.53;7.05;;;;;;;4.94;74.61;100299.48;1804493;79;21288;-82
2020/12/20 11:10:29;;;;;;;19.32;8.65;;;;;;;4.97;73.17;100297.38;1741085;82;21279;-82
2020/12/20 11:12:56;;;;;;;21.55;8.30;;;;;;;5.03;74.28;100297.91;1737093;81;21306;-82
2020/12/20 11:15:23;;;;;;;18.25;8.25;;;;;;;5.04;74.35;100300.52;1752627;81;21303;-82
2020/12/20 11:17:51;;;;;;;25.80;9.50;;;;;;;5.03;73.63;100297.47;1780897;79;21327;-83
2020/12/20 11:20:18;;;;;;;19.20;9.03;;;;;;;4.97;73.37;100293.11;1736799;81;21345;-81
2020/12/20 11:22:46;;;;;;;21.97;9.23;;;;;;;4.95;73.15;100297.38;1757679;81;21320;-83
2020/12/20 11:25:13;;;;;;;21.73;11.00;;;;;;;4.96;72.70;100293.08;1757238;81;21288;-81
2020/12/20 11:27:40;;;;;;;22.87;11.68;;;;;;;4.93;71.51;100299.45;1745068;81;21307;-82
2020/12/20 11:30:08;;;;;;;19.02;7.12;;;;;;;4.93;71.79;100297.77;1742175;80;21287;-81
2020/12/20 11:32:36;;;;;;;20.08;7.97;;;;;;;4.95;71.99;100298.66;1771465;80;21620;-82
2020/12/20 11:35:04;;;;;;;18.55;7.72;;;;;;;4.97;72.07;100295.69;1757100;81;21610;-82
2020/12/20 11:37:32;;;;;;;15.80;6.95;;;;;;;4.95;72.10;100291.33;1755987;81;21664;-81
2020/12/20 11:39:59;;;;;;;20.70;9.30;;;;;;;4.96;72.24;100299.52;1755219;80;21662;-81